createdAt,value
2022-10-29T00:00:14.687Z,2.95
2022-10-29T00:02:48.118Z,3.15
2022-10-29T00:05:15.587Z,2.78
2022-10-29T00:07:43.049Z,2.95
2022-10-29T00:10:17.060Z,3.22
2022-10-29T00:12:44.483Z,3.08
2022-10-29T00:15:11.986Z,2.88
2022-10-29T00:17:46.095Z,3.00
2022-10-29T00:20:13.596Z,2.92
2022-10-29T00:22:40.964Z,2.80
2022-10-29T00:25:15.184Z,3.33
2022-10-29T00:27:42.522Z,3.10
2022-10-29T00:30:11.810Z,3.00
2022-10-29T00:32:50.422Z,2.60
2022-10-29T00:35:17.804Z,2.80
2022-10-29T00:37:45.269Z,3.75
2022-10-29T00:40:19.377Z,3.63
2022-10-29T00:42:46.810Z,3.35
2022-10-29T00:45:27.400Z,3.00
2022-10-29T00:47:55.078Z,3.65
2022-10-29T00:50:24.652Z,2.85
2022-10-29T00:53:04.688Z,3.13
2022-10-29T00:55:32.622Z,2.85
2022-10-29T00:58:13.672Z,3.28
2022-10-29T01:00:48.072Z,3.05
2022-10-29T01:03:22.627Z,3.03
2022-10-29T01:05:51.590Z,3.30
2022-10-29T01:08:23.799Z,3.15
2022-10-29T01:11:37.884Z,3.25
2022-10-29T01:14:07.834Z,3.33
2022-10-29T01:17:08.870Z,2.80
2022-10-29T01:19:54.859Z,2.97
2022-10-29T01:22:36.807Z,3.33
2022-10-29T01:25:19.256Z,3.45
2022-10-29T01:28:28.186Z,3.53
2022-10-29T01:31:16.806Z,2.97
2022-10-29T01:34:20.008Z,3.03
2022-10-29T01:37:08.721Z,3.05
2022-10-29T01:39:51.973Z,3.20
2022-10-29T01:42:36.200Z,3.33
2022-10-29T01:45:24.314Z,3.35
2022-10-29T01:48:02.913Z,3.15
2022-10-29T01:50:40.325Z,3.03
2022-10-29T01:53:07.940Z,2.90
2022-10-29T01:55:39.662Z,3.20
2022-10-29T02:01:46.842Z,3.05
2022-10-29T02:04:35.697Z,3.10
2022-10-29T02:07:26.203Z,3.33
2022-10-29T02:10:08.751Z,3.35
2022-10-29T02:12:47.512Z,2.53
2022-10-29T02:15:41.744Z,2.97
2022-10-29T02:18:09.538Z,3.20
2022-10-29T02:20:49.774Z,2.92
2022-10-29T02:23:17.603Z,3.03
2022-10-29T02:25:45.125Z,3.40
2022-10-29T02:30:50.945Z,3.25
2022-10-29T02:33:18.305Z,2.88
2022-10-29T02:35:59.361Z,2.97
2022-10-29T02:38:26.802Z,2.60
2022-10-29T02:40:56.488Z,3.60
2022-10-29T02:43:30.432Z,2.42
2022-10-29T02:46:18.251Z,2.67
2022-10-29T02:48:52.462Z,3.10
2022-10-29T02:51:19.998Z,3.03
2022-10-29T02:53:47.772Z,3.40
2022-10-29T02:56:21.478Z,3.03
2022-10-29T02:59:11.814Z,2.67
2022-10-29T03:01:46.673Z,2.90
2022-10-29T03:04:14.252Z,3.20
2022-10-29T03:06:41.652Z,3.00
2022-10-29T03:09:15.533Z,3.03
2022-10-29T03:11:42.953Z,3.20
2022-10-29T03:14:14.984Z,3.00
2022-10-29T03:16:48.972Z,3.30
2022-10-29T03:19:16.357Z,3.35
2022-10-29T03:21:43.726Z,3.28
2022-10-29T03:24:18.008Z,3.17
2022-10-29T03:26:45.361Z,3.15
2022-10-29T03:29:15.064Z,3.97
2022-10-29T03:31:49.103Z,2.83
2022-10-29T03:34:16.544Z,2.78
2022-10-29T03:36:43.996Z,3.20
2022-10-29T03:39:19.270Z,2.90
2022-10-29T03:41:53.471Z,2.70
2022-10-29T03:44:27.328Z,2.42
2022-10-29T03:46:54.826Z,3.25
2022-10-29T03:49:22.255Z,2.58
2022-10-29T03:51:56.324Z,2.78
2022-10-29T03:54:23.725Z,3.13
2022-10-29T03:56:51.174Z,3.47
2022-10-29T03:59:25.275Z,2.83
2022-10-29T04:01:59.655Z,3.08
2022-10-29T04:04:33.327Z,3.55
2022-10-29T04:07:00.692Z,2.80
2022-10-29T04:09:28.093Z,2.72
2022-10-29T04:12:02.325Z,3.10
2022-10-29T04:14:34.503Z,3.33
2022-10-29T04:17:01.963Z,3.40
2022-10-29T04:19:36.240Z,2.80
2022-10-29T04:28:41.348Z,3.35
2022-10-29T04:30:40.197Z,3.53
2022-10-29T04:33:07.895Z,2.50
2022-10-29T04:35:35.285Z,2.63
2022-10-29T04:38:25.165Z,2.92
2022-10-29T04:41:00.623Z,2.63
2022-10-29T04:43:38.387Z,3.08
2022-10-29T04:46:05.885Z,2.95
2022-10-29T04:48:33.327Z,3.33
2022-10-29T04:51:07.366Z,3.35
2022-10-29T04:53:34.717Z,2.60
2022-10-29T04:56:05.691Z,3.00
2022-10-29T04:58:39.377Z,2.85
2022-10-29T05:01:13.840Z,2.78
2022-10-29T05:03:48.385Z,2.67
2022-10-29T05:06:15.771Z,2.80
2022-10-29T05:08:45.076Z,2.70
2022-10-29T05:11:19.393Z,2.92
2022-10-29T05:13:52.931Z,2.70
2022-10-29T05:16:20.464Z,3.60
2022-10-29T05:18:54.059Z,2.53
2022-10-29T05:21:21.543Z,2.83
2022-10-29T05:23:49.090Z,3.30
2022-10-29T05:26:23.039Z,2.88
2022-10-29T05:28:51.628Z,3.05
2022-10-29T05:31:19.685Z,2.88
2022-10-29T05:33:56.027Z,2.90
2022-10-29T05:36:25.820Z,2.90
2022-10-29T05:38:53.175Z,3.00
2022-10-29T05:41:29.283Z,2.95
2022-10-29T05:43:56.743Z,3.22
2022-10-29T05:46:24.215Z,3.20
2022-10-29T05:49:00.042Z,3.13
2022-10-29T05:51:27.442Z,2.97
2022-10-29T05:53:54.863Z,2.47
2022-10-29T05:56:30.325Z,2.67
2022-10-29T05:59:04.352Z,2.83
2022-10-29T06:01:38.424Z,3.30
2022-10-29T06:04:06.008Z,2.83
2022-10-29T06:06:34.113Z,3.03
2022-10-29T06:09:08.256Z,3.25
2022-10-29T06:11:35.642Z,2.75
2022-10-29T06:14:06.255Z,2.80
2022-10-29T06:16:40.366Z,3.10
2022-10-29T06:19:07.747Z,3.35
2022-10-29T06:21:35.723Z,3.00
2022-10-29T06:24:10.330Z,2.80
2022-10-29T06:26:38.000Z,2.85
2022-10-29T06:29:05.448Z,3.13
2022-10-29T06:31:39.219Z,2.80
2022-10-29T06:34:06.670Z,3.00
2022-10-29T06:36:34.110Z,2.85
2022-10-29T06:39:08.252Z,3.00
2022-10-29T06:41:35.683Z,3.60
2022-10-29T06:44:03.179Z,3.15
2022-10-29T06:46:37.309Z,3.25
2022-10-29T06:49:04.727Z,3.05
2022-10-29T06:51:36.080Z,3.22
2022-10-29T06:54:11.884Z,3.05
2022-10-29T06:56:39.327Z,3.00
2022-10-29T06:59:26.844Z,2.72
2022-10-29T07:01:54.786Z,3.55
2022-10-29T07:04:26.598Z,3.33
2022-10-29T07:07:00.925Z,3.00
2022-10-29T07:09:28.313Z,3.20
2022-10-29T07:11:55.726Z,3.28
2022-10-29T07:14:29.935Z,3.20
2022-10-29T07:17:00.054Z,3.13
2022-10-29T07:19:27.538Z,2.67
2022-10-29T07:22:01.696Z,2.97
2022-10-29T07:24:29.073Z,3.40
2022-10-29T07:26:56.434Z,3.10
2022-10-29T07:29:30.647Z,3.13
2022-10-29T07:31:58.009Z,2.70
2022-10-29T07:34:27.389Z,2.72
2022-10-29T07:37:01.681Z,2.88
2022-10-29T07:39:29.140Z,3.00
2022-10-29T07:41:59.418Z,3.05
2022-10-29T07:44:33.789Z,3.00
2022-10-29T07:47:03.153Z,2.83
2022-10-29T07:49:30.655Z,3.20
2022-10-29T07:52:04.705Z,2.67
2022-10-29T07:54:32.123Z,3.05
2022-10-29T07:56:59.613Z,3.10
2022-10-29T07:59:33.876Z,3.25
2022-10-29T08:02:10.639Z,2.90
2022-10-29T08:04:44.680Z,2.53
2022-10-29T08:07:12.050Z,3.08
2022-10-29T08:09:40.288Z,3.25
2022-10-29T08:12:18.792Z,3.38
2022-10-29T08:14:46.509Z,3.17
2022-10-29T08:17:14.139Z,3.22
2022-10-29T08:19:47.656Z,3.08
2022-10-29T08:22:15.192Z,2.70
2022-10-29T08:24:42.654Z,2.70
2022-10-29T08:27:16.699Z,3.25
2022-10-29T08:29:44.213Z,3.08
2022-10-29T08:32:11.747Z,3.55
2022-10-29T08:34:45.742Z,2.88
2022-10-29T08:37:13.201Z,3.67
2022-10-29T08:39:40.692Z,3.22
2022-10-29T08:42:41.722Z,3.30
2022-10-29T08:45:27.951Z,3.47
2022-10-29T08:48:01.725Z,2.72
2022-10-29T08:50:35.270Z,3.67
2022-10-29T08:53:22.765Z,2.83
2022-10-29T08:55:51.273Z,2.83
2022-10-29T08:58:42.813Z,2.70
2022-10-29T09:01:13.756Z,3.30
2022-10-29T09:03:41.570Z,2.92
2022-10-29T09:06:33.897Z,3.35
2022-10-29T09:09:24.822Z,3.17
2022-10-29T09:12:08.377Z,3.58
2022-10-29T09:15:10.749Z,3.90
2022-10-29T09:17:57.604Z,3.47
2022-10-29T09:20:55.305Z,2.92
2022-10-29T09:23:59.684Z,2.53
2022-10-29T09:26:36.823Z,3.15
2022-10-29T09:29:42.840Z,3.10
2022-10-29T09:32:16.913Z,3.72
2022-10-29T09:34:56.659Z,2.95
2022-10-29T09:37:56.679Z,2.80
2022-10-29T09:40:36.753Z,2.80
2022-10-29T09:43:12.159Z,3.78
2022-10-29T09:45:53.556Z,3.00
2022-10-29T09:48:48.404Z,2.60
2022-10-29T09:51:51.580Z,2.65
2022-10-29T09:54:19.251Z,2.72
2022-10-29T09:56:53.351Z,2.60
2022-10-29T09:59:38.593Z,2.55
2022-10-29T10:02:32.685Z,2.30
2022-10-29T10:05:19.620Z,2.47
2022-10-29T10:08:06.947Z,2.35
2022-10-29T10:10:43.585Z,2.28
2022-10-29T10:13:17.213Z,2.42
2022-10-29T10:16:03.605Z,2.30
2022-10-29T10:18:41.735Z,2.85
2022-10-29T10:21:38.615Z,3.50
2022-10-29T10:24:31.110Z,2.45
2022-10-29T10:27:05.687Z,2.95
2022-10-29T10:29:34.010Z,3.80
2022-10-29T10:32:16.754Z,3.50
2022-10-29T10:34:44.872Z,2.97
2022-10-29T10:37:25.694Z,3.40
2022-10-29T10:40:03.309Z,4.10
2022-10-29T10:42:43.681Z,3.88
2022-10-29T10:45:18.103Z,4.43
2022-10-29T10:47:58.287Z,4.45
2022-10-29T10:50:30.785Z,4.70
2022-10-29T10:53:09.708Z,6.47
2022-10-29T10:55:46.772Z,4.72
2022-10-29T10:58:41.790Z,4.20
2022-10-29T11:01:42.430Z,4.60
2022-10-29T11:04:23.985Z,4.90
2022-10-29T11:06:55.297Z,4.47
2022-10-29T11:09:43.914Z,4.68
2022-10-29T11:12:20.350Z,4.45
2022-10-29T11:15:06.945Z,4.68
2022-10-29T11:17:39.641Z,4.32
2022-10-29T11:20:35.881Z,4.05
2022-10-29T11:23:28.581Z,4.68
2022-10-29T11:26:23.848Z,4.30
2022-10-29T11:28:57.019Z,4.35
2022-10-29T11:31:51.883Z,4.03
2022-10-29T11:34:39.382Z,4.70
2022-10-29T11:37:26.916Z,4.63
2022-10-29T11:40:40.659Z,4.40
2022-10-29T11:43:23.896Z,4.53
2022-10-29T11:46:12.957Z,4.90
2022-10-29T11:49:05.905Z,4.70
2022-10-29T11:52:04.833Z,4.97
2022-10-29T11:55:15.923Z,4.75
2022-10-29T11:57:53.737Z,4.32
2022-10-29T12:00:40.903Z,4.22
2022-10-29T12:03:32.319Z,5.32
2022-10-29T12:06:26.017Z,4.25
2022-10-29T12:09:17.878Z,4.22
2022-10-29T12:12:01.916Z,4.00
2022-10-29T12:14:51.635Z,3.90
2022-10-29T12:17:37.952Z,4.22
2022-10-29T12:20:29.280Z,4.40
2022-10-29T12:23:32.011Z,4.25
2022-10-29T12:26:12.193Z,4.10
2022-10-29T12:29:05.815Z,3.60
2022-10-29T12:31:50.410Z,3.80
2022-10-29T12:34:44.023Z,3.75
2022-10-29T12:38:04.972Z,3.65
2022-10-29T12:40:44.989Z,3.85
2022-10-29T12:43:27.776Z,4.32
2022-10-29T12:46:20.032Z,3.75
2022-10-29T12:49:15.625Z,3.70
2022-10-29T12:52:05.918Z,3.50
2022-10-29T12:54:37.413Z,3.40
2022-10-29T12:57:25.902Z,4.10
2022-10-29T13:00:34.202Z,3.88
2022-10-29T13:03:08.013Z,3.70
2022-10-29T13:05:38.826Z,3.72
2022-10-29T13:08:06.215Z,3.80
2022-10-29T13:10:41.973Z,4.32
2022-10-29T13:13:15.452Z,4.32
2022-10-29T13:16:08.362Z,4.13
2022-10-29T13:19:06.172Z,4.68
2022-10-29T13:22:11.074Z,4.50
2022-10-29T13:24:38.769Z,4.78
2022-10-29T13:27:27.939Z,4.25
2022-10-29T13:30:20.835Z,4.47
2022-10-29T13:32:55.331Z,4.68
2022-10-29T13:35:23.041Z,3.70
2022-10-29T13:37:53.271Z,3.92
2022-10-29T13:40:29.934Z,3.65
2022-10-29T13:43:14.615Z,3.63
2022-10-29T13:45:56.326Z,4.13
2022-10-29T13:48:36.931Z,3.90
2022-10-29T13:51:17.050Z,4.05
2022-10-29T13:53:54.986Z,4.40
2022-10-29T13:56:59.970Z,4.10
2022-10-29T14:00:11.990Z,3.75
2022-10-29T14:03:04.932Z,4.47
2022-10-29T14:06:00.218Z,3.90
2022-10-29T14:08:45.999Z,3.90
2022-10-29T14:11:27.748Z,4.45
2022-10-29T14:14:05.908Z,4.30
2022-10-29T14:16:33.976Z,4.10
2022-10-29T14:19:21.948Z,4.20
2022-10-29T14:21:49.904Z,3.85
2022-10-29T14:24:43.947Z,3.83
2022-10-29T14:27:17.490Z,3.75
2022-10-29T14:29:53.131Z,3.67
2022-10-29T14:32:23.301Z,4.15
2022-10-29T14:34:57.945Z,3.80
2022-10-29T14:37:46.260Z,3.60
2022-10-29T14:40:27.975Z,3.33
2022-10-29T14:42:57.062Z,3.95
2022-10-29T14:45:37.074Z,3.35
2022-10-29T14:48:16.228Z,3.85
2022-10-29T14:50:57.032Z,3.85
2022-10-29T14:53:34.662Z,3.67
2022-10-29T14:56:16.099Z,3.78
2022-10-29T14:58:43.658Z,3.67
2022-10-29T15:01:30.007Z,3.40
2022-10-29T15:04:00.703Z,3.38
2022-10-29T15:06:37.157Z,4.22
2022-10-29T15:09:14.921Z,3.53
2022-10-29T15:12:05.007Z,3.30
2022-10-29T15:14:36.662Z,3.47
2022-10-29T15:17:28.150Z,3.45
2022-10-29T15:20:13.963Z,3.72
2022-10-29T15:22:49.023Z,3.63
2022-10-29T15:25:24.933Z,3.78
2022-10-29T15:28:02.103Z,3.55
2022-10-29T15:30:37.835Z,3.53
2022-10-29T15:33:20.048Z,3.97
2022-10-29T15:35:57.734Z,4.10
2022-10-29T15:38:38.154Z,3.90
2022-10-29T15:41:36.336Z,3.80
2022-10-29T15:44:30.193Z,3.67
2022-10-29T15:46:59.651Z,3.92
2022-10-29T15:49:31.538Z,4.05
2022-10-29T15:52:08.059Z,4.35
2022-10-29T15:54:35.515Z,3.33
2022-10-29T15:57:03.425Z,3.58
2022-10-29T15:59:37.129Z,3.20
2022-10-29T16:02:13.429Z,3.15
2022-10-29T16:04:48.088Z,3.40
2022-10-29T16:07:16.807Z,3.45
2022-10-29T16:09:59.069Z,4.47
2022-10-29T16:12:26.754Z,3.90
2022-10-29T16:14:55.028Z,3.22
2022-10-29T16:17:29.029Z,3.20
2022-10-29T16:19:58.699Z,3.72
2022-10-29T16:22:37.330Z,3.47
2022-10-29T16:25:05.031Z,2.97
2022-10-29T16:27:32.432Z,3.40
2022-10-29T16:30:06.059Z,3.22
2022-10-29T16:32:33.680Z,4.00
2022-10-29T16:35:01.095Z,3.10
2022-10-29T16:37:35.085Z,2.92
2022-10-29T16:40:03.357Z,3.35
2022-10-29T16:42:42.170Z,3.30
2022-10-29T16:45:16.898Z,3.83
2022-10-29T16:47:51.126Z,3.40
2022-10-29T16:50:24.603Z,2.90
2022-10-29T16:53:06.141Z,3.58
2022-10-29T16:55:35.608Z,3.70
2022-10-29T16:58:03.652Z,3.00
2022-10-29T17:00:40.104Z,3.28
2022-10-29T17:03:11.489Z,3.33
2022-10-29T17:05:48.104Z,3.00
2022-10-29T17:08:15.545Z,3.35
2022-10-29T17:10:42.921Z,3.47
2022-10-29T17:13:18.102Z,3.25
2022-10-29T17:15:45.596Z,3.45
2022-10-29T17:18:13.563Z,3.05
2022-10-29T17:20:47.189Z,3.00
2022-10-29T17:23:14.721Z,3.47
2022-10-29T17:25:42.113Z,3.53
2022-10-29T17:28:16.130Z,3.08
2022-10-29T17:30:43.767Z,2.90
2022-10-29T17:33:13.047Z,3.60
2022-10-29T17:35:47.136Z,2.88
2022-10-29T17:38:14.690Z,3.40
2022-10-29T17:40:46.291Z,3.00
2022-10-29T17:43:20.128Z,3.08
2022-10-29T17:45:47.646Z,3.75
2022-10-29T17:48:15.653Z,3.50
2022-10-29T17:51:01.065Z,3.10
2022-10-29T17:53:30.440Z,4.22
2022-10-29T17:56:08.191Z,3.40
2022-10-29T17:58:37.964Z,3.10
2022-10-29T18:01:23.407Z,3.03
2022-10-29T18:04:02.383Z,3.85
2022-10-29T18:06:36.315Z,3.47
2022-10-29T18:09:04.056Z,3.03
2022-10-29T18:11:31.887Z,3.08
2022-10-29T18:14:06.332Z,2.90
2022-10-29T18:16:34.224Z,3.45
2022-10-29T18:19:03.704Z,3.40
2022-10-29T18:21:38.324Z,3.88
2022-10-29T18:24:09.182Z,3.28
2022-10-29T18:26:37.978Z,3.17
2022-10-29T18:29:19.333Z,3.03
2022-10-29T18:31:47.086Z,3.25
2022-10-29T18:34:15.617Z,3.08
2022-10-29T18:36:54.426Z,3.20
2022-10-29T18:39:21.936Z,3.28
2022-10-29T18:41:49.774Z,3.83
2022-10-29T18:44:25.601Z,3.17
2022-10-29T18:46:55.828Z,3.00
2022-10-29T18:49:23.500Z,2.80
2022-10-29T18:51:59.916Z,3.38
2022-10-29T18:54:27.525Z,2.92
2022-10-29T18:56:55.125Z,2.92
2022-10-29T18:59:31.209Z,2.80
2022-10-29T19:02:04.864Z,2.72
2022-10-29T19:04:39.394Z,2.92
2022-10-29T19:07:06.893Z,3.20
2022-10-29T19:09:34.719Z,2.78
2022-10-29T19:12:08.631Z,2.78
2022-10-29T19:14:38.954Z,3.28
2022-10-29T19:17:06.457Z,3.78
2022-10-29T19:19:40.188Z,3.05
2022-10-29T19:22:07.997Z,3.08
2022-10-29T19:24:35.607Z,2.63
2022-10-29T19:27:10.478Z,2.90
2022-10-29T19:29:38.018Z,2.63
2022-10-29T19:32:06.324Z,3.05
2022-10-29T19:34:40.394Z,2.85
2022-10-29T19:37:09.823Z,3.28
2022-10-29T19:39:37.422Z,3.00
2022-10-29T19:42:11.900Z,2.55
2022-10-29T19:44:39.877Z,2.67
2022-10-29T19:47:08.989Z,2.45
2022-10-29T19:49:43.067Z,3.08
2022-10-29T19:52:10.647Z,3.08
2022-10-29T19:54:38.102Z,3.05
2022-10-29T19:57:11.970Z,2.70
2022-10-29T19:59:59.977Z,3.00
2022-10-29T20:02:33.972Z,2.63
2022-10-29T20:05:01.713Z,2.53
2022-10-29T20:07:29.229Z,2.75
2022-10-29T20:10:03.071Z,2.95
2022-10-29T20:12:32.989Z,2.85
2022-10-29T20:15:00.749Z,2.30
2022-10-29T20:17:38.049Z,3.20
2022-10-29T20:20:07.147Z,2.53
2022-10-29T20:22:34.661Z,2.80
2022-10-29T20:25:09.227Z,2.58
2022-10-29T20:27:39.941Z,3.10
2022-10-29T20:30:08.123Z,2.60
2022-10-29T20:32:42.286Z,3.08
2022-10-29T20:35:10.301Z,2.95
2022-10-29T20:37:38.831Z,2.80
2022-10-29T20:40:14.736Z,3.20
2022-10-29T20:42:43.010Z,2.67
2022-10-29T20:45:11.865Z,3.22
2022-10-29T20:47:46.410Z,3.22
2022-10-29T20:50:14.150Z,2.50
2022-10-29T20:52:45.784Z,2.83
2022-10-29T20:55:23.200Z,2.30
2022-10-29T20:57:50.632Z,3.08
2022-10-29T21:00:32.350Z,2.95
2022-10-29T21:02:59.864Z,2.78
2022-10-29T21:05:27.514Z,2.05
2022-10-29T21:08:02.051Z,2.72
2022-10-29T21:10:29.525Z,2.60
2022-10-29T21:12:57.464Z,2.78
2022-10-29T21:15:32.056Z,3.05
2022-10-29T21:17:59.944Z,2.92
2022-10-29T21:20:27.431Z,2.38
2022-10-29T21:23:02.329Z,2.63
2022-10-29T21:25:36.795Z,2.60
2022-10-29T21:28:04.398Z,2.63
2022-10-29T21:30:38.960Z,3.97
2022-10-29T21:33:06.421Z,2.72
2022-10-29T21:35:33.885Z,3.20
2022-10-29T21:41:02.278Z,2.22
2022-10-29T21:43:36.082Z,2.50
2022-10-29T21:46:03.560Z,3.40
2022-10-29T21:48:31.108Z,2.78
2022-10-29T21:51:14.103Z,2.95
2022-10-29T21:53:41.590Z,3.00
2022-10-29T21:56:12.263Z,2.85
2022-10-29T21:58:46.093Z,3.28
2022-10-29T22:01:24.232Z,3.22
2022-10-29T22:04:08.706Z,2.80
2022-10-29T22:06:38.634Z,2.20
2022-10-29T22:09:06.144Z,2.70
2022-10-29T22:11:44.282Z,2.25
2022-10-29T22:14:11.634Z,3.10
2022-10-29T22:16:39.031Z,2.60
2022-10-29T22:19:16.179Z,2.78
2022-10-29T22:21:48.765Z,2.85
2022-10-29T22:24:16.436Z,2.75
2022-10-29T22:26:50.784Z,2.83
2022-10-29T22:29:18.471Z,2.47
2022-10-29T22:31:45.904Z,2.38
2022-10-29T22:34:19.775Z,3.13
2022-10-29T22:36:49.722Z,2.42
2022-10-29T22:39:17.229Z,2.47
2022-10-29T22:41:51.787Z,2.38
2022-10-29T22:44:19.172Z,2.72
2022-10-29T22:46:46.632Z,2.67
2022-10-29T22:49:20.706Z,2.45
2022-10-29T22:51:57.151Z,2.75
2022-10-29T22:54:34.700Z,2.70
2022-10-29T22:57:02.031Z,2.83
2022-10-29T22:59:29.390Z,2.30
2022-10-29T23:02:03.859Z,2.92
2022-10-29T23:04:48.916Z,2.60
2022-10-29T23:10:21.700Z,2.88
2022-10-29T23:12:55.795Z,2.97
2022-10-29T23:15:23.205Z,2.85
2022-10-29T23:17:53.898Z,2.85
2022-10-29T23:20:36.514Z,2.75
2022-10-29T23:23:03.942Z,2.97
2022-10-29T23:25:31.448Z,3.08
2022-10-29T23:28:05.559Z,2.65
2022-10-29T23:30:33.116Z,2.35
2022-10-29T23:33:01.005Z,2.83
2022-10-29T23:35:37.874Z,2.45
2022-10-29T23:38:05.235Z,3.20
2022-10-29T23:40:35.389Z,2.72
2022-10-29T23:43:09.122Z,2.80
2022-10-29T23:45:37.237Z,2.78
2022-10-29T23:48:04.825Z,2.90
2022-10-29T23:50:39.136Z,2.80
2022-10-29T23:53:07.407Z,2.90
2022-10-29T23:55:38.213Z,2.75
2022-10-29T23:58:12.662Z,2.30
